sensor_id;sensor_type;location;lat;lon;timestamp;pressure;altitude;pressure_sealevel;temperature;humidity
43450;BME280;29041;42.266;23.110;2024-01-10T00:01:50;96842.94;;;-3.44;99.22
43450;BME280;29041;42.266;23.110;2024-01-10T00:04:39;96845.09;;;-3.27;97.41
43450;BME280;29041;42.266;23.110;2024-01-10T00:07:26;96851.31;;;-3.01;97.42
43450;BME280;29041;42.266;23.110;2024-01-10T00:10:13;96857.97;;;-2.60;95.45
43450;BME280;29041;42.266;23.110;2024-01-10T00:13:00;96850.63;;;-3.36;94.95
43450;BME280;29041;42.266;23.110;2024-01-10T00:15:47;96842.31;;;-3.32;96.78
43450;BME280;29041;42.266;23.110;2024-01-10T00:18:35;96844.56;;;-3.43;98.02
43450;BME280;29041;42.266;23.110;2024-01-10T00:21:23;96825.09;;;-3.15;98.73
43450;BME280;29041;42.266;23.110;2024-01-10T00:24:11;96841.25;;;-3.18;98.64
43450;BME280;29041;42.266;23.110;2024-01-10T00:26:58;96842.91;;;-3.30;95.94
43450;BME280;29041;42.266;23.110;2024-01-10T00:29:47;96869.63;;;-3.80;96.20
43450;BME280;29041;42.266;23.110;2024-01-10T00:32:34;96859.94;;;-3.53;97.96
43450;BME280;29041;42.266;23.110;2024-01-10T00:35:21;96847.63;;;-3.59;98.16
43450;BME280;29041;42.266;23.110;2024-01-10T00:38:09;96850.22;;;-3.39;98.94
43450;BME280;29041;42.266;23.110;2024-01-10T00:40:56;96865.97;;;-3.53;96.80
43450;BME280;29041;42.266;23.110;2024-01-10T00:43:46;96859.84;;;-3.13;97.54
43450;BME280;29041;42.266;23.110;2024-01-10T00:46:33;96865.88;;;-2.60;95.20
43450;BME280;29041;42.266;23.110;2024-01-10T00:49:20;96863.38;;;-2.87;95.39
43450;BME280;29041;42.266;23.110;2024-01-10T00:52:07;96864.16;;;-2.80;94.69
43450;BME280;29041;42.266;23.110;2024-01-10T00:54:56;96861.41;;;-2.98;98.65
43450;BME280;29041;42.266;23.110;2024-01-10T00:57:43;96865.56;;;-3.56;98.22
43450;BME280;29041;42.266;23.110;2024-01-10T01:00:31;96870.97;;;-3.17;96.26
43450;BME280;29041;42.266;23.110;2024-01-10T01:03:19;96869.81;;;-3.55;97.87
43450;BME280;29041;42.266;23.110;2024-01-10T01:06:06;96865.09;;;-2.67;95.92
43450;BME280;29041;42.266;23.110;2024-01-10T01:08:53;96870.34;;;-2.61;95.89
43450;BME280;29041;42.266;23.110;2024-01-10T01:11:41;96867.59;;;-2.79;96.86
43450;BME280;29041;42.266;23.110;2024-01-10T01:14:28;96867.41;;;-2.84;95.01
43450;BME280;29041;42.266;23.110;2024-01-10T01:17:16;96862.47;;;-3.20;96.78
43450;BME280;29041;42.266;23.110;2024-01-10T01:20:03;96857.75;;;-2.97;96.87
43450;BME280;29041;42.266;23.110;2024-01-10T01:22:51;96868.00;;;-2.44;94.02
43450;BME280;29041;42.266;23.110;2024-01-10T01:25:38;96870.81;;;-3.56;96.03
43450;BME280;29041;42.266;23.110;2024-01-10T01:28:27;96864.13;;;-3.39;97.78
43450;BME280;29041;42.266;23.110;2024-01-10T01:31:14;96869.44;;;-3.79;97.82
43450;BME280;29041;42.266;23.110;2024-01-10T01:34:01;96852.69;;;-3.78;100.00
43450;BME280;29041;42.266;23.110;2024-01-10T01:36:48;96864.34;;;-3.40;100.00
43450;BME280;29041;42.266;23.110;2024-01-10T01:39:37;96874.53;;;-2.98;96.99
43450;BME280;29041;42.266;23.110;2024-01-10T01:42:24;96874.28;;;-3.56;98.52
43450;BME280;29041;42.266;23.110;2024-01-10T01:45:13;96881.69;;;-3.32;100.00
43450;BME280;29041;42.266;23.110;2024-01-10T01:48:00;96879.91;;;-3.32;97.32
43450;BME280;29041;42.266;23.110;2024-01-10T01:50:50;96879.25;;;-3.21;99.58
43450;BME280;29041;42.266;23.110;2024-01-10T01:53:38;96870.09;;;-2.98;100.00
43450;BME280;29041;42.266;23.110;2024-01-10T01:56:26;96869.44;;;-3.65;100.00
43450;BME280;29041;42.266;23.110;2024-01-10T01:59:16;96864.28;;;-3.20;100.00
43450;BME280;29041;42.266;23.110;2024-01-10T02:02:05;96863.47;;;-3.14;99.97
43450;BME280;29041;42.266;23.110;2024-01-10T02:04:53;96852.53;;;-3.04;99.35
43450;BME280;29041;42.266;23.110;2024-01-10T02:07:40;96859.41;;;-3.03;97.02
43450;BME280;29041;42.266;23.110;2024-01-10T02:10:27;96857.31;;;-3.67;98.85
43450;BME280;29041;42.266;23.110;2024-01-10T02:13:15;96851.81;;;-3.38;99.17
43450;BME280;29041;42.266;23.110;2024-01-10T02:16:03;96830.78;;;-3.25;98.58
43450;BME280;29041;42.266;23.110;2024-01-10T02:18:52;96851.00;;;-3.32;99.64
43450;BME280;29041;42.266;23.110;2024-01-10T02:21:39;96829.44;;;-2.95;96.84
43450;BME280;29041;42.266;23.110;2024-01-10T02:24:26;96828.38;;;-3.33;98.01
43450;BME280;29041;42.266;23.110;2024-01-10T02:27:15;96824.31;;;-2.77;96.59
43450;BME280;29041;42.266;23.110;2024-01-10T02:30:03;96832.44;;;-3.51;98.89
43450;BME280;29041;42.266;23.110;2024-01-10T02:32:50;96825.97;;;-3.48;100.00
43450;BME280;29041;42.266;23.110;2024-01-10T02:35:37;96835.50;;;-3.60;99.52
43450;BME280;29041;42.266;23.110;2024-01-10T02:38:25;96831.97;;;-3.27;100.00
43450;BME280;29041;42.266;23.110;2024-01-10T02:41:12;96834.84;;;-3.36;99.16
43450;BME280;29041;42.266;23.110;2024-01-10T02:44:01;96830.69;;;-3.97;100.00
43450;BME280;29041;42.266;23.110;2024-01-10T02:46:48;96831.22;;;-3.41;100.00
43450;BME280;29041;42.266;23.110;2024-01-10T02:49:35;96842.16;;;-3.64;99.31
43450;BME280;29041;42.266;23.110;2024-01-10T02:52:22;96844.59;;;-3.63;99.18
43450;BME280;29041;42.266;23.110;2024-01-10T02:55:09;96847.94;;;-3.22;100.00
43450;BME280;29041;42.266;23.110;2024-01-10T02:57:56;96844.63;;;-3.83;100.00
43450;BME280;29041;42.266;23.110;2024-01-10T03:00:45;96842.34;;;-3.53;99.37
43450;BME280;29041;42.266;23.110;2024-01-10T03:03:32;96851.88;;;-3.58;100.00
43450;BME280;29041;42.266;23.110;2024-01-10T03:06:19;96854.09;;;-3.82;100.00
43450;BME280;29041;42.266;23.110;2024-01-10T03:09:06;96855.69;;;-4.41;100.00
43450;BME280;29041;42.266;23.110;2024-01-10T03:11:53;96853.88;;;-4.41;100.00
43450;BME280;29041;42.266;23.110;2024-01-10T03:14:41;96846.03;;;-3.94;100.00
43450;BME280;29041;42.266;23.110;2024-01-10T03:17:29;96862.78;;;-3.95;100.00
43450;BME280;29041;42.266;23.110;2024-01-10T03:20:19;96855.91;;;-3.76;100.00
43450;BME280;29041;42.266;23.110;2024-01-10T03:23:06;96850.28;;;-4.13;100.00
43450;BME280;29041;42.266;23.110;2024-01-10T03:25:53;96844.41;;;-4.02;100.00
43450;BME280;29041;42.266;23.110;2024-01-10T03:28:40;96860.94;;;-3.61;100.00
43450;BME280;29041;42.266;23.110;2024-01-10T03:31:28;96854.25;;;-3.37;100.00
43450;BME280;29041;42.266;23.110;2024-01-10T03:34:17;96858.50;;;-3.49;97.93
43450;BME280;29041;42.266;23.110;2024-01-10T03:37:04;96864.50;;;-3.15;96.05
43450;BME280;29041;42.266;23.110;2024-01-10T03:39:51;96859.63;;;-3.11;96.57
43450;BME280;29041;42.266;23.110;2024-01-10T03:42:38;96847.66;;;-3.00;97.98
43450;BME280;29041;42.266;23.110;2024-01-10T03:45:26;96860.25;;;-3.16;95.26
43450;BME280;29041;42.266;23.110;2024-01-10T03:48:14;96862.66;;;-3.08;95.53
43450;BME280;29041;42.266;23.110;2024-01-10T03:51:03;96865.09;;;-3.13;97.14
43450;BME280;29041;42.266;23.110;2024-01-10T03:53:50;96860.03;;;-3.08;96.23
43450;BME280;29041;42.266;23.110;2024-01-10T03:56:37;96858.78;;;-3.05;96.71
43450;BME280;29041;42.266;23.110;2024-01-10T03:59:24;96855.22;;;-3.31;96.66
43450;BME280;29041;42.266;23.110;2024-01-10T04:02:11;96846.50;;;-3.18;95.11
43450;BME280;29041;42.266;23.110;2024-01-10T04:04:58;96866.00;;;-3.79;96.19
43450;BME280;29041;42.266;23.110;2024-01-10T04:07:47;96862.22;;;-3.05;94.37
43450;BME280;29041;42.266;23.110;2024-01-10T04:10:34;96859.16;;;-3.80;96.02
43450;BME280;29041;42.266;23.110;2024-01-10T04:13:21;96865.56;;;-3.56;95.92
43450;BME280;29041;42.266;23.110;2024-01-10T04:16:08;96871.63;;;-3.49;93.81
43450;BME280;29041;42.266;23.110;2024-01-10T04:18:55;96857.53;;;-3.82;95.01
43450;BME280;29041;42.266;23.110;2024-01-10T04:21:42;96876.69;;;-3.74;94.84
43450;BME280;29041;42.266;23.110;2024-01-10T04:24:31;96874.28;;;-4.03;96.73
43450;BME280;29041;42.266;23.110;2024-01-10T04:27:18;96884.97;;;-3.97;97.91
43450;BME280;29041;42.266;23.110;2024-01-10T04:30:06;96881.13;;;-3.48;98.44
43450;BME280;29041;42.266;23.110;2024-01-10T04:32:54;96888.81;;;-3.87;95.76
43450;BME280;29041;42.266;23.110;2024-01-10T04:35:41;96882.94;;;-3.48;94.05
43450;BME280;29041;42.266;23.110;2024-01-10T04:38:28;96870.38;;;-3.26;96.51
43450;BME280;29041;42.266;23.110;2024-01-10T04:41:16;96885.78;;;-3.57;96.44
43450;BME280;29041;42.266;23.110;2024-01-10T04:44:04;96880.94;;;-3.67;95.35
43450;BME280;29041;42.266;23.110;2024-01-10T04:46:51;96897.50;;;-3.79;96.85
43450;BME280;29041;42.266;23.110;2024-01-10T04:49:38;96893.06;;;-3.65;95.91
43450;BME280;29041;42.266;23.110;2024-01-10T04:52:25;96893.22;;;-3.47;93.46
43450;BME280;29041;42.266;23.110;2024-01-10T04:55:12;96898.06;;;-3.37;94.23
43450;BME280;29041;42.266;23.110;2024-01-10T04:58:01;96895.06;;;-3.94;93.52
43450;BME280;29041;42.266;23.110;2024-01-10T05:00:48;96893.06;;;-3.92;93.82
43450;BME280;29041;42.266;23.110;2024-01-10T05:03:36;96893.84;;;-3.85;95.19
43450;BME280;29041;42.266;23.110;2024-01-10T05:06:23;96895.28;;;-3.96;94.22
43450;BME280;29041;42.266;23.110;2024-01-10T05:09:10;96890.22;;;-4.11;94.47
43450;BME280;29041;42.266;23.110;2024-01-10T05:11:57;96895.84;;;-3.54;92.13
43450;BME280;29041;42.266;23.110;2024-01-10T05:14:46;96909.19;;;-3.75;92.26
43450;BME280;29041;42.266;23.110;2024-01-10T05:17:33;96903.53;;;-4.19;94.18
43450;BME280;29041;42.266;23.110;2024-01-10T05:20:25;96919.06;;;-3.91;93.82
43450;BME280;29041;42.266;23.110;2024-01-10T05:23:13;96913.19;;;-3.19;92.43
43450;BME280;29041;42.266;23.110;2024-01-10T05:26:00;96924.13;;;-3.49;91.41
43450;BME280;29041;42.266;23.110;2024-01-10T05:28:47;96923.13;;;-3.82;92.27
43450;BME280;29041;42.266;23.110;2024-01-10T05:31:35;96915.88;;;-3.66;93.86
43450;BME280;29041;42.266;23.110;2024-01-10T05:34:22;96912.03;;;-3.70;92.26
43450;BME280;29041;42.266;23.110;2024-01-10T05:37:10;96913.41;;;-4.21;93.48
43450;BME280;29041;42.266;23.110;2024-01-10T05:39:57;96926.56;;;-3.74;94.53
43450;BME280;29041;42.266;23.110;2024-01-10T05:42:44;96925.97;;;-3.83;92.79
43450;BME280;29041;42.266;23.110;2024-01-10T05:45:31;96922.72;;;-3.72;92.70
43450;BME280;29041;42.266;23.110;2024-01-10T05:48:20;96926.16;;;-3.91;92.09
43450;BME280;29041;42.266;23.110;2024-01-10T05:51:07;96925.56;;;-3.46;91.24
43450;BME280;29041;42.266;23.110;2024-01-10T05:53:54;96923.34;;;-3.70;91.29
43450;BME280;29041;42.266;23.110;2024-01-10T05:56:41;96924.94;;;-3.75;93.67
43450;BME280;29041;42.266;23.110;2024-01-10T05:59:28;96927.78;;;-3.77;91.80
43450;BME280;29041;42.266;23.110;2024-01-10T06:02:16;96931.41;;;-3.91;91.46
43450;BME280;29041;42.266;23.110;2024-01-10T06:05:06;96937.00;;;-3.07;91.17
43450;BME280;29041;42.266;23.110;2024-01-10T06:07:54;96941.66;;;-4.17;92.33
43450;BME280;29041;42.266;23.110;2024-01-10T06:10:41;96939.50;;;-3.59;92.39
43450;BME280;29041;42.266;23.110;2024-01-10T06:13:28;96947.53;;;-3.27;90.14
43450;BME280;29041;42.266;23.110;2024-01-10T06:16:15;96945.94;;;-3.55;89.57
43450;BME280;29041;42.266;23.110;2024-01-10T06:19:03;96949.56;;;-4.10;90.43
43450;BME280;29041;42.266;23.110;2024-01-10T06:21:51;96956.44;;;-3.42;89.18
43450;BME280;29041;42.266;23.110;2024-01-10T06:24:38;96954.44;;;-3.80;89.71
43450;BME280;29041;42.266;23.110;2024-01-10T06:27:26;96949.19;;;-3.60;91.14
43450;BME280;29041;42.266;23.110;2024-01-10T06:30:14;96956.66;;;-3.70;88.65
43450;BME280;29041;42.266;23.110;2024-01-10T06:33:01;96959.25;;;-3.10;89.57
43450;BME280;29041;42.266;23.110;2024-01-10T06:35:48;96960.50;;;-3.39;87.58
43450;BME280;29041;42.266;23.110;2024-01-10T06:38:38;96972.19;;;-3.69;89.07
43450;BME280;29041;42.266;23.110;2024-01-10T06:41:25;96969.38;;;-3.47;89.55
43450;BME280;29041;42.266;23.110;2024-01-10T06:44:13;96962.53;;;-3.41;87.57
43450;BME280;29041;42.266;23.110;2024-01-10T06:47:00;96955.25;;;-3.46;86.02
43450;BME280;29041;42.266;23.110;2024-01-10T06:49:50;96966.16;;;-3.22;86.26
43450;BME280;29041;42.266;23.110;2024-01-10T06:52:37;96966.94;;;-3.69;88.27
43450;BME280;29041;42.266;23.110;2024-01-10T06:55:26;96971.81;;;-3.39;88.03
43450;BME280;29041;42.266;23.110;2024-01-10T06:58:14;96974.03;;;-3.42;86.77
43450;BME280;29041;42.266;23.110;2024-01-10T07:01:02;96983.88;;;-2.91;85.04
43450;BME280;29041;42.266;23.110;2024-01-10T07:03:52;96986.34;;;-3.56;87.35
43450;BME280;29041;42.266;23.110;2024-01-10T07:06:40;96977.84;;;-3.38;87.39
43450;BME280;29041;42.266;23.110;2024-01-10T07:09:27;96976.84;;;-3.30;87.06
43450;BME280;29041;42.266;23.110;2024-01-10T07:12:16;96994.41;;;-3.44;84.96
43450;BME280;29041;42.266;23.110;2024-01-10T07:15:04;96989.16;;;-3.71;88.34
43450;BME280;29041;42.266;23.110;2024-01-10T07:17:51;96991.19;;;-3.67;88.29
43450;BME280;29041;42.266;23.110;2024-01-10T07:20:45;96997.66;;;-3.69;87.86
43450;BME280;29041;42.266;23.110;2024-01-10T07:23:32;96984.13;;;-3.46;85.38
43450;BME280;29041;42.266;23.110;2024-01-10T07:26:20;96984.94;;;-3.39;86.26
43450;BME280;29041;42.266;23.110;2024-01-10T07:29:08;97002.69;;;-3.27;85.16
43450;BME280;29041;42.266;23.110;2024-01-10T07:32:00;96990.78;;;-3.57;87.24
43450;BME280;29041;42.266;23.110;2024-01-10T07:34:47;97007.97;;;-3.47;86.85
43450;BME280;29041;42.266;23.110;2024-01-10T07:37:35;97008.97;;;-3.48;87.03
43450;BME280;29041;42.266;23.110;2024-01-10T07:40:22;97005.94;;;-3.39;86.54
43450;BME280;29041;42.266;23.110;2024-01-10T07:43:09;97020.47;;;-3.63;87.68
43450;BME280;29041;42.266;23.110;2024-01-10T07:45:59;97005.75;;;-3.30;87.20
43450;BME280;29041;42.266;23.110;2024-01-10T07:48:46;97021.88;;;-3.20;84.82
43450;BME280;29041;42.266;23.110;2024-01-10T07:51:34;97024.31;;;-3.39;86.49
43450;BME280;29041;42.266;23.110;2024-01-10T07:54:21;97023.91;;;-2.89;87.50
43450;BME280;29041;42.266;23.110;2024-01-10T07:57:08;97025.91;;;-2.91;84.71
43450;BME280;29041;42.266;23.110;2024-01-10T07:59:55;97021.63;;;-2.72;84.53
43450;BME280;29041;42.266;23.110;2024-01-10T08:02:44;97026.28;;;-2.74;83.96
43450;BME280;29041;42.266;23.110;2024-01-10T08:05:31;97022.91;;;-3.28;84.44
43450;BME280;29041;42.266;23.110;2024-01-10T08:08:19;97027.88;;;-2.59;85.82
43450;BME280;29041;42.266;23.110;2024-01-10T08:11:06;97021.28;;;-2.23;83.18
43450;BME280;29041;42.266;23.110;2024-01-10T08:13:53;97002.63;;;-2.67;83.69
43450;BME280;29041;42.266;23.110;2024-01-10T08:16:40;97026.84;;;-2.51;83.64
43450;BME280;29041;42.266;23.110;2024-01-10T08:19:29;97026.28;;;-2.67;83.61
43450;BME280;29041;42.266;23.110;2024-01-10T08:22:16;97028.53;;;-2.12;82.33
43450;BME280;29041;42.266;23.110;2024-01-10T08:25:03;97021.59;;;-1.99;81.73
43450;BME280;29041;42.266;23.110;2024-01-10T08:27:51;97027.72;;;-2.12;80.93
43450;BME280;29041;42.266;23.110;2024-01-10T08:30:39;97036.97;;;-1.96;79.79
43450;BME280;29041;42.266;23.110;2024-01-10T08:33:27;97032.69;;;-2.36;81.41
43450;BME280;29041;42.266;23.110;2024-01-10T08:36:17;97032.97;;;-1.41;78.42
43450;BME280;29041;42.266;23.110;2024-01-10T08:39:04;97033.66;;;-1.21;76.91
43450;BME280;29041;42.266;23.110;2024-01-10T08:41:52;97013.34;;;-1.71;79.17
43450;BME280;29041;42.266;23.110;2024-01-10T08:44:39;97033.66;;;-1.21;78.72
43450;BME280;29041;42.266;23.110;2024-01-10T08:47:26;97034.19;;;-1.12;76.75
43450;BME280;29041;42.266;23.110;2024-01-10T08:50:15;97029.00;;;-0.75;77.46
43450;BME280;29041;42.266;23.110;2024-01-10T08:53:04;97030.16;;;-1.40;75.68
43450;BME280;29041;42.266;23.110;2024-01-10T08:55:52;97037.81;;;-0.25;73.38
43450;BME280;29041;42.266;23.110;2024-01-10T08:58:39;97030.63;;;-0.18;70.51
43450;BME280;29041;42.266;23.110;2024-01-10T09:01:26;97028.31;;;0.35;70.54
43450;BME280;29041;42.266;23.110;2024-01-10T09:04:13;97014.50;;;0.21;69.26
43450;BME280;29041;42.266;23.110;2024-01-10T09:07:00;97018.69;;;0.40;71.75
43450;BME280;29041;42.266;23.110;2024-01-10T09:09:49;97020.88;;;-0.36;71.53
43450;BME280;29041;42.266;23.110;2024-01-10T09:12:36;97015.59;;;-0.18;72.22
43450;BME280;29041;42.266;23.110;2024-01-10T09:15:23;97012.09;;;0.61;70.35
43450;BME280;29041;42.266;23.110;2024-01-10T09:18:10;97014.19;;;0.83;68.60
43450;BME280;29041;42.266;23.110;2024-01-10T09:20:57;97009.72;;;1.19;67.43
43450;BME280;29041;42.266;23.110;2024-01-10T09:23:44;97011.69;;;1.00;69.17
43450;BME280;29041;42.266;23.110;2024-01-10T09:26:34;97007.41;;;0.99;67.49
43450;BME280;29041;42.266;23.110;2024-01-10T09:29:22;97016.50;;;0.91;72.05
43450;BME280;29041;42.266;23.110;2024-01-10T09:32:09;96996.50;;;0.95;70.43
43450;BME280;29041;42.266;23.110;2024-01-10T09:34:57;97006.78;;;0.50;69.97
43450;BME280;29041;42.266;23.110;2024-01-10T09:37:44;97004.47;;;0.41;69.20
43450;BME280;29041;42.266;23.110;2024-01-10T09:40:32;97001.88;;;0.65;69.31
43450;BME280;29041;42.266;23.110;2024-01-10T09:43:20;97005.53;;;0.64;67.31
43450;BME280;29041;42.266;23.110;2024-01-10T09:46:08;96995.47;;;0.85;69.75
43450;BME280;29041;42.266;23.110;2024-01-10T09:48:56;97001.53;;;1.45;68.62
43450;BME280;29041;42.266;23.110;2024-01-10T09:51:44;96992.38;;;1.76;66.44
43450;BME280;29041;42.266;23.110;2024-01-10T09:54:37;96987.63;;;1.90;66.67
43450;BME280;29041;42.266;23.110;2024-01-10T09:57:25;96986.50;;;1.86;64.27
43450;BME280;29041;42.266;23.110;2024-01-10T10:00:16;96993.28;;;1.82;65.98
43450;BME280;29041;42.266;23.110;2024-01-10T10:03:04;96970.97;;;1.25;66.91
43450;BME280;29041;42.266;23.110;2024-01-10T10:05:53;96973.09;;;1.52;67.64
43450;BME280;29041;42.266;23.110;2024-01-10T10:08:40;96971.53;;;1.80;68.54
43450;BME280;29041;42.266;23.110;2024-01-10T10:11:27;96961.28;;;2.12;67.90
43450;BME280;29041;42.266;23.110;2024-01-10T10:14:15;96957.72;;;3.26;65.33
43450;BME280;29041;42.266;23.110;2024-01-10T10:17:15;96957.22;;;2.38;66.78
43450;BME280;29041;42.266;23.110;2024-01-10T10:20:03;96946.22;;;2.81;65.67
43450;BME280;29041;42.266;23.110;2024-01-10T10:22:58;96943.75;;;2.57;66.42
43450;BME280;29041;42.266;23.110;2024-01-10T10:25:46;96955.69;;;3.11;66.83
43450;BME280;29041;42.266;23.110;2024-01-10T10:28:34;96942.50;;;2.14;69.53
43450;BME280;29041;42.266;23.110;2024-01-10T10:31:21;96936.00;;;2.21;69.09
43450;BME280;29041;42.266;23.110;2024-01-10T10:34:11;96914.69;;;1.41;70.89
43450;BME280;29041;42.266;23.110;2024-01-10T10:36:58;96897.13;;;2.78;66.84
43450;BME280;29041;42.266;23.110;2024-01-10T10:39:45;96907.25;;;3.92;66.71
43450;BME280;29041;42.266;23.110;2024-01-10T10:42:33;96908.00;;;4.15;64.12
43450;BME280;29041;42.266;23.110;2024-01-10T10:45:21;96911.50;;;3.44;66.52
43450;BME280;29041;42.266;23.110;2024-01-10T10:48:12;96881.28;;;3.50;63.70
43450;BME280;29041;42.266;23.110;2024-01-10T10:51:08;96881.72;;;3.64;66.20
43450;BME280;29041;42.266;23.110;2024-01-10T10:53:56;96884.91;;;3.61;68.01
43450;BME280;29041;42.266;23.110;2024-01-10T10:56:45;96872.34;;;4.86;61.32
43450;BME280;29041;42.266;23.110;2024-01-10T10:59:33;96879.63;;;3.66;61.71
43450;BME280;29041;42.266;23.110;2024-01-10T11:02:23;96879.94;;;2.81;63.12
43450;BME280;29041;42.266;23.110;2024-01-10T11:05:11;96871.94;;;3.42;62.28
43450;BME280;29041;42.266;23.110;2024-01-10T11:08:01;96864.66;;;5.53;57.48
43450;BME280;29041;42.266;23.110;2024-01-10T11:10:51;96846.91;;;3.60;63.56
43450;BME280;29041;42.266;23.110;2024-01-10T11:13:56;96842.84;;;4.45;59.76
43450;BME280;29041;42.266;23.110;2024-01-10T11:17:07;96856.00;;;4.24;62.29
43450;BME280;29041;42.266;23.110;2024-01-10T11:20:33;96844.13;;;5.49;57.78
43450;BME280;29041;42.266;23.110;2024-01-10T11:23:43;96850.59;;;5.00;59.85
43450;BME280;29041;42.266;23.110;2024-01-10T11:26:32;96848.94;;;4.08;61.83
43450;BME280;29041;42.266;23.110;2024-01-10T11:29:19;96819.34;;;5.38;57.00
43450;BME280;29041;42.266;23.110;2024-01-10T11:32:07;96844.97;;;4.91;59.00
43450;BME280;29041;42.266;23.110;2024-01-10T11:34:57;96837.09;;;3.61;62.76
43450;BME280;29041;42.266;23.110;2024-01-10T11:37:45;96831.22;;;3.86;62.20
43450;BME280;29041;42.266;23.110;2024-01-10T11:40:49;96820.81;;;6.28;56.88
43450;BME280;29041;42.266;23.110;2024-01-10T11:43:36;96814.78;;;7.64;53.36
43450;BME280;29041;42.266;23.110;2024-01-10T11:46:23;96818.34;;;5.75;54.32
43450;BME280;29041;42.266;23.110;2024-01-10T11:49:11;96803.44;;;7.38;52.44
43450;BME280;29041;42.266;23.110;2024-01-10T11:52:00;96811.56;;;5.21;59.89
43450;BME280;29041;42.266;23.110;2024-01-10T11:54:47;96808.50;;;5.86;56.16
43450;BME280;29041;42.266;23.110;2024-01-10T11:57:38;96798.44;;;7.21;52.51
43450;BME280;29041;42.266;23.110;2024-01-10T12:00:25;96794.56;;;8.22;50.45
43450;BME280;29041;42.266;23.110;2024-01-10T12:03:14;96800.72;;;5.43;55.93
43450;BME280;29041;42.266;23.110;2024-01-10T12:06:02;96802.72;;;5.99;55.92
43450;BME280;29041;42.266;23.110;2024-01-10T12:08:49;96796.53;;;6.35;54.50
43450;BME280;29041;42.266;23.110;2024-01-10T12:11:36;96792.03;;;7.17;55.19
43450;BME280;29041;42.266;23.110;2024-01-10T12:14:27;96790.13;;;6.36;54.64
43450;BME280;29041;42.266;23.110;2024-01-10T12:17:14;96796.38;;;4.58;60.50
43450;BME280;29041;42.266;23.110;2024-01-10T12:20:02;96797.97;;;3.84;62.06
43450;BME280;29041;42.266;23.110;2024-01-10T12:22:49;96796.53;;;4.36;61.39
43450;BME280;29041;42.266;23.110;2024-01-10T12:25:36;96794.22;;;3.79;62.80
43450;BME280;29041;42.266;23.110;2024-01-10T12:28:23;96786.81;;;5.20;59.19
43450;BME280;29041;42.266;23.110;2024-01-10T12:31:12;96776.50;;;5.39;57.39
43450;BME280;29041;42.266;23.110;2024-01-10T12:33:59;96776.00;;;5.74;60.14
43450;BME280;29041;42.266;23.110;2024-01-10T12:36:47;96781.41;;;4.95;59.51
43450;BME280;29041;42.266;23.110;2024-01-10T12:39:35;96771.63;;;6.81;57.26
43450;BME280;29041;42.266;23.110;2024-01-10T12:42:23;96770.34;;;6.68;55.44
43450;BME280;29041;42.266;23.110;2024-01-10T12:45:20;96745.97;;;7.40;52.36
43450;BME280;29041;42.266;23.110;2024-01-10T12:48:13;96760.59;;;6.07;54.70
43450;BME280;29041;42.266;23.110;2024-01-10T12:51:03;96765.56;;;7.20;54.09
43450;BME280;29041;42.266;23.110;2024-01-10T12:53:52;96759.72;;;6.47;55.84
43450;BME280;29041;42.266;23.110;2024-01-10T12:56:39;96770.13;;;6.44;54.29
43450;BME280;29041;42.266;23.110;2024-01-10T12:59:26;96766.16;;;6.21;57.57
43450;BME280;29041;42.266;23.110;2024-01-10T13:02:14;96758.75;;;6.98;53.86
43450;BME280;29041;42.266;23.110;2024-01-10T13:05:03;96756.00;;;5.50;58.93
43450;BME280;29041;42.266;23.110;2024-01-10T13:07:50;96759.47;;;5.61;57.30
43450;BME280;29041;42.266;23.110;2024-01-10T13:10:37;96756.97;;;6.73;55.22
43450;BME280;29041;42.266;23.110;2024-01-10T13:13:24;96757.69;;;6.89;54.87
43450;BME280;29041;42.266;23.110;2024-01-10T13:16:11;96751.13;;;6.66;54.16
43450;BME280;29041;42.266;23.110;2024-01-10T13:18:58;96762.59;;;6.66;53.79
43450;BME280;29041;42.266;23.110;2024-01-10T13:21:47;96760.53;;;6.43;54.36
43450;BME280;29041;42.266;23.110;2024-01-10T13:24:34;96735.75;;;5.49;57.11
43450;BME280;29041;42.266;23.110;2024-01-10T13:27:21;96756.81;;;5.77;56.38
43450;BME280;29041;42.266;23.110;2024-01-10T13:30:09;96752.25;;;5.41;58.81
43450;BME280;29041;42.266;23.110;2024-01-10T13:32:57;96752.50;;;5.29;58.43
43450;BME280;29041;42.266;23.110;2024-01-10T13:35:45;96760.72;;;5.12;60.52
43450;BME280;29041;42.266;23.110;2024-01-10T13:38:34;96757.34;;;5.94;57.03
43450;BME280;29041;42.266;23.110;2024-01-10T13:41:21;96760.16;;;6.75;54.57
43450;BME280;29041;42.266;23.110;2024-01-10T13:44:08;96742.94;;;7.12;53.25
43450;BME280;29041;42.266;23.110;2024-01-10T13:46:55;96762.13;;;5.66;56.52
43450;BME280;29041;42.266;23.110;2024-01-10T13:49:42;96764.00;;;6.28;56.15
43450;BME280;29041;42.266;23.110;2024-01-10T13:52:29;96763.50;;;6.05;57.50
43450;BME280;29041;42.266;23.110;2024-01-10T13:55:18;96764.78;;;5.46;58.05
43450;BME280;29041;42.266;23.110;2024-01-10T13:58:06;96754.78;;;4.95;59.49
43450;BME280;29041;42.266;23.110;2024-01-10T14:00:53;96754.56;;;4.43;61.40
43450;BME280;29041;42.266;23.110;2024-01-10T14:03:41;96768.22;;;2.99;67.65
43450;BME280;29041;42.266;23.110;2024-01-10T14:06:28;96765.75;;;3.42;66.85
43450;BME280;29041;42.266;23.110;2024-01-10T14:09:15;96758.47;;;3.60;67.95
43450;BME280;29041;42.266;23.110;2024-01-10T14:12:05;96766.59;;;2.98;69.17
43450;BME280;29041;42.266;23.110;2024-01-10T14:14:52;96767.91;;;2.74;70.06
43450;BME280;29041;42.266;23.110;2024-01-10T14:17:40;96761.19;;;3.38;68.39
43450;BME280;29041;42.266;23.110;2024-01-10T14:20:27;96759.94;;;2.96;69.90
43450;BME280;29041;42.266;23.110;2024-01-10T14:23:14;96766.41;;;3.27;69.65
43450;BME280;29041;42.266;23.110;2024-01-10T14:26:03;96759.22;;;3.28;69.29
43450;BME280;29041;42.266;23.110;2024-01-10T14:28:52;96762.88;;;3.22;68.38
43450;BME280;29041;42.266;23.110;2024-01-10T14:31:41;96770.44;;;3.08;68.65
43450;BME280;29041;42.266;23.110;2024-01-10T14:34:28;96768.22;;;2.99;68.97
43450;BME280;29041;42.266;23.110;2024-01-10T14:37:15;96757.50;;;3.16;68.36
43450;BME280;29041;42.266;23.110;2024-01-10T14:40:03;96761.06;;;3.00;69.35
43450;BME280;29041;42.266;23.110;2024-01-10T14:42:52;96761.09;;;2.38;71.55